sensor_id;sensor_type;location;lat;lon;timestamp;P1;durP1;ratioP1;P2;durP2;ratioP2
34920;SDS011;21128;50.016;20.002;2024-01-15T00:01:01;8.70;;;4.90;;
34920;SDS011;21128;50.016;20.002;2024-01-15T00:03:48;9.30;;;5.20;;
34920;SDS011;21128;50.016;20.002;2024-01-15T00:06:14;10.20;;;4.80;;
34920;SDS011;21128;50.016;20.002;2024-01-15T00:08:41;9.40;;;5.00;;
34920;SDS011;21128;50.016;20.002;2024-01-15T00:11:08;8.90;;;4.80;;
34920;SDS011;21128;50.016;20.002;2024-01-15T00:13:34;8.00;;;4.50;;
34920;SDS011;21128;50.016;20.002;2024-01-15T00:16:04;7.90;;;4.40;;
34920;SDS011;21128;50.016;20.002;2024-01-15T00:18:32;7.10;;;4.50;;
34920;SDS011;21128;50.016;20.002;2024-01-15T00:20:58;8.20;;;4.70;;
34920;SDS011;21128;50.016;20.002;2024-01-15T00:23:25;8.00;;;4.50;;
34920;SDS011;21128;50.016;20.002;2024-01-15T00:25:52;7.00;;;4.20;;
34920;SDS011;21128;50.016;20.002;2024-01-15T00:28:18;8.20;;;4.20;;
34920;SDS011;21128;50.016;20.002;2024-01-15T00:30:45;6.60;;;4.10;;
34920;SDS011;21128;50.016;20.002;2024-01-15T00:33:12;7.40;;;4.40;;
34920;SDS011;21128;50.016;20.002;2024-01-15T00:35:41;8.20;;;4.20;;
34920;SDS011;21128;50.016;20.002;2024-01-15T00:38:08;8.10;;;4.40;;
34920;SDS011;21128;50.016;20.002;2024-01-15T00:40:34;8.40;;;4.40;;
34920;SDS011;21128;50.016;20.002;2024-01-15T00:43:01;7.20;;;4.10;;
34920;SDS011;21128;50.016;20.002;2024-01-15T00:45:29;7.40;;;4.00;;
34920;SDS011;21128;50.016;20.002;2024-01-15T00:47:55;6.80;;;4.20;;
34920;SDS011;21128;50.016;20.002;2024-01-15T00:50:23;7.60;;;4.20;;
34920;SDS011;21128;50.016;20.002;2024-01-15T00:52:49;6.30;;;3.90;;
34920;SDS011;21128;50.016;20.002;2024-01-15T00:55:16;6.30;;;4.00;;
34920;SDS011;21128;50.016;20.002;2024-01-15T00:57:43;7.60;;;4.10;;
34920;SDS011;21128;50.016;20.002;2024-01-15T01:00:09;9.30;;;3.70;;
34920;SDS011;21128;50.016;20.002;2024-01-15T01:02:37;6.60;;;4.10;;
34920;SDS011;21128;50.016;20.002;2024-01-15T01:05:04;5.60;;;3.80;;
34920;SDS011;21128;50.016;20.002;2024-01-15T01:07:31;6.80;;;3.80;;
34920;SDS011;21128;50.016;20.002;2024-01-15T01:09:57;7.30;;;3.90;;
34920;SDS011;21128;50.016;20.002;2024-01-15T01:12:24;6.80;;;4.30;;
34920;SDS011;21128;50.016;20.002;2024-01-15T01:14:51;10.30;;;3.90;;
34920;SDS011;21128;50.016;20.002;2024-01-15T01:17:17;6.70;;;4.00;;
34920;SDS011;21128;50.016;20.002;2024-01-15T01:19:44;7.80;;;4.00;;
34920;SDS011;21128;50.016;20.002;2024-01-15T01:22:11;6.70;;;4.40;;
34920;SDS011;21128;50.016;20.002;2024-01-15T01:24:38;6.90;;;4.20;;
34920;SDS011;21128;50.016;20.002;2024-01-15T01:27:04;5.60;;;3.50;;
34920;SDS011;21128;50.016;20.002;2024-01-15T01:29:34;5.80;;;4.00;;
34920;SDS011;21128;50.016;20.002;2024-01-15T01:32:01;9.60;;;4.40;;
34920;SDS011;21128;50.016;20.002;2024-01-15T01:34:28;6.00;;;3.60;;
34920;SDS011;21128;50.016;20.002;2024-01-15T01:36:55;7.40;;;4.00;;
34920;SDS011;21128;50.016;20.002;2024-01-15T01:39:21;6.50;;;3.60;;
34920;SDS011;21128;50.016;20.002;2024-01-15T01:41:48;8.90;;;4.00;;
34920;SDS011;21128;50.016;20.002;2024-01-15T01:44:15;9.20;;;3.70;;
34920;SDS011;21128;50.016;20.002;2024-01-15T01:46:42;6.30;;;3.10;;
34920;SDS011;21128;50.016;20.002;2024-01-15T01:49:09;7.30;;;4.00;;
34920;SDS011;21128;50.016;20.002;2024-01-15T01:51:36;6.70;;;4.10;;
34920;SDS011;21128;50.016;20.002;2024-01-15T01:54:05;6.50;;;3.70;;
34920;SDS011;21128;50.016;20.002;2024-01-15T01:56:34;7.30;;;3.70;;
34920;SDS011;21128;50.016;20.002;2024-01-15T01:59:02;6.90;;;3.60;;
34920;SDS011;21128;50.016;20.002;2024-01-15T02:01:31;7.10;;;3.80;;
34920;SDS011;21128;50.016;20.002;2024-01-15T02:03:58;6.20;;;3.40;;
34920;SDS011;21128;50.016;20.002;2024-01-15T02:06:26;7.50;;;4.10;;
34920;SDS011;21128;50.016;20.002;2024-01-15T02:08:53;7.10;;;4.00;;
34920;SDS011;21128;50.016;20.002;2024-01-15T02:11:20;5.10;;;3.30;;
34920;SDS011;21128;50.016;20.002;2024-01-15T02:13:47;8.40;;;3.90;;
34920;SDS011;21128;50.016;20.002;2024-01-15T02:16:14;6.20;;;3.90;;
34920;SDS011;21128;50.016;20.002;2024-01-15T02:18:44;5.70;;;3.50;;
34920;SDS011;21128;50.016;20.002;2024-01-15T02:21:12;9.40;;;3.60;;
34920;SDS011;21128;50.016;20.002;2024-01-15T02:23:39;7.50;;;3.60;;
34920;SDS011;21128;50.016;20.002;2024-01-15T02:26:05;4.30;;;2.80;;
34920;SDS011;21128;50.016;20.002;2024-01-15T02:28:33;8.00;;;3.10;;
34920;SDS011;21128;50.016;20.002;2024-01-15T02:31:00;5.70;;;3.30;;
34920;SDS011;21128;50.016;20.002;2024-01-15T02:33:27;4.70;;;3.00;;
34920;SDS011;21128;50.016;20.002;2024-01-15T02:35:54;4.50;;;2.90;;
34920;SDS011;21128;50.016;20.002;2024-01-15T02:38:21;5.80;;;2.80;;
34920;SDS011;21128;50.016;20.002;2024-01-15T02:40:49;5.30;;;3.50;;
34920;SDS011;21128;50.016;20.002;2024-01-15T02:43:16;6.40;;;3.30;;
34920;SDS011;21128;50.016;20.002;2024-01-15T02:45:42;5.60;;;3.20;;
34920;SDS011;21128;50.016;20.002;2024-01-15T02:48:09;4.90;;;2.90;;
34920;SDS011;21128;50.016;20.002;2024-01-15T02:50:36;4.80;;;2.70;;
34920;SDS011;21128;50.016;20.002;2024-01-15T02:53:03;8.00;;;3.10;;
34920;SDS011;21128;50.016;20.002;2024-01-15T02:55:30;4.00;;;2.70;;
34920;SDS011;21128;50.016;20.002;2024-01-15T02:57:56;5.70;;;2.90;;
34920;SDS011;21128;50.016;20.002;2024-01-15T03:00:23;5.30;;;2.60;;
34920;SDS011;21128;50.016;20.002;2024-01-15T03:02:50;5.00;;;2.60;;
34920;SDS011;21128;50.016;20.002;2024-01-15T03:05:18;3.70;;;2.40;;
34920;SDS011;21128;50.016;20.002;2024-01-15T03:07:44;6.00;;;2.80;;
34920;SDS011;21128;50.016;20.002;2024-01-15T03:10:11;4.70;;;2.60;;
34920;SDS011;21128;50.016;20.002;2024-01-15T03:12:38;5.80;;;2.80;;
34920;SDS011;21128;50.016;20.002;2024-01-15T03:15:04;4.90;;;2.80;;
34920;SDS011;21128;50.016;20.002;2024-01-15T03:17:31;5.30;;;2.80;;
34920;SDS011;21128;50.016;20.002;2024-01-15T03:19:58;6.50;;;3.30;;
34920;SDS011;21128;50.016;20.002;2024-01-15T03:22:25;7.70;;;2.80;;
34920;SDS011;21128;50.016;20.002;2024-01-15T03:24:52;6.60;;;3.50;;
34920;SDS011;21128;50.016;20.002;2024-01-15T03:27:19;5.50;;;2.70;;
34920;SDS011;21128;50.016;20.002;2024-01-15T03:29:46;5.20;;;2.80;;
34920;SDS011;21128;50.016;20.002;2024-01-15T03:32:13;4.10;;;2.50;;
34920;SDS011;21128;50.016;20.002;2024-01-15T03:34:39;6.10;;;3.00;;
34920;SDS011;21128;50.016;20.002;2024-01-15T03:37:06;5.50;;;3.10;;
34920;SDS011;21128;50.016;20.002;2024-01-15T03:39:33;4.90;;;2.50;;
34920;SDS011;21128;50.016;20.002;2024-01-15T03:41:59;4.00;;;2.50;;
34920;SDS011;21128;50.016;20.002;2024-01-15T03:44:26;4.10;;;2.10;;
34920;SDS011;21128;50.016;20.002;2024-01-15T03:46:53;4.40;;;2.50;;
34920;SDS011;21128;50.016;20.002;2024-01-15T03:49:20;4.00;;;2.50;;
34920;SDS011;21128;50.016;20.002;2024-01-15T03:51:46;4.70;;;2.40;;
34920;SDS011;21128;50.016;20.002;2024-01-15T03:54:13;5.00;;;2.50;;
34920;SDS011;21128;50.016;20.002;2024-01-15T03:56:40;7.20;;;3.30;;
34920;SDS011;21128;50.016;20.002;2024-01-15T03:59:06;5.00;;;2.90;;
34920;SDS011;21128;50.016;20.002;2024-01-15T04:01:33;3.60;;;2.20;;
34920;SDS011;21128;50.016;20.002;2024-01-15T04:04:00;4.60;;;2.80;;
34920;SDS011;21128;50.016;20.002;2024-01-15T04:06:26;4.30;;;2.60;;
34920;SDS011;21128;50.016;20.002;2024-01-15T04:08:54;5.50;;;2.60;;
34920;SDS011;21128;50.016;20.002;2024-01-15T04:11:20;5.40;;;2.60;;
34920;SDS011;21128;50.016;20.002;2024-01-15T04:13:48;3.90;;;2.30;;
34920;SDS011;21128;50.016;20.002;2024-01-15T04:16:15;4.10;;;2.20;;
34920;SDS011;21128;50.016;20.002;2024-01-15T04:18:42;3.70;;;2.30;;
34920;SDS011;21128;50.016;20.002;2024-01-15T04:21:08;5.10;;;2.60;;
34920;SDS011;21128;50.016;20.002;2024-01-15T04:23:35;3.60;;;2.10;;
34920;SDS011;21128;50.016;20.002;2024-01-15T04:26:02;4.10;;;2.50;;
34920;SDS011;21128;50.016;20.002;2024-01-15T04:28:29;7.00;;;3.00;;
34920;SDS011;21128;50.016;20.002;2024-01-15T04:30:55;7.20;;;2.50;;
34920;SDS011;21128;50.016;20.002;2024-01-15T04:33:22;4.70;;;2.20;;
34920;SDS011;21128;50.016;20.002;2024-01-15T04:35:49;4.30;;;2.70;;
34920;SDS011;21128;50.016;20.002;2024-01-15T04:38:16;4.40;;;2.30;;
34920;SDS011;21128;50.016;20.002;2024-01-15T04:40:42;5.80;;;2.70;;
34920;SDS011;21128;50.016;20.002;2024-01-15T04:43:12;3.60;;;2.10;;
34920;SDS011;21128;50.016;20.002;2024-01-15T04:45:38;3.40;;;2.10;;
34920;SDS011;21128;50.016;20.002;2024-01-15T04:48:05;5.70;;;2.50;;
34920;SDS011;21128;50.016;20.002;2024-01-15T04:50:32;4.80;;;2.80;;
34920;SDS011;21128;50.016;20.002;2024-01-15T04:52:59;7.10;;;2.80;;
34920;SDS011;21128;50.016;20.002;2024-01-15T04:55:25;3.70;;;2.30;;
34920;SDS011;21128;50.016;20.002;2024-01-15T04:57:52;4.70;;;2.70;;
34920;SDS011;21128;50.016;20.002;2024-01-15T05:00:19;5.30;;;3.30;;
34920;SDS011;21128;50.016;20.002;2024-01-15T05:02:46;4.30;;;2.80;;
34920;SDS011;21128;50.016;20.002;2024-01-15T05:05:13;4.30;;;2.60;;
34920;SDS011;21128;50.016;20.002;2024-01-15T05:07:39;4.50;;;2.20;;
34920;SDS011;21128;50.016;20.002;2024-01-15T05:10:06;5.80;;;3.00;;
34920;SDS011;21128;50.016;20.002;2024-01-15T05:12:34;4.60;;;2.40;;
34920;SDS011;21128;50.016;20.002;2024-01-15T05:15:01;5.40;;;2.60;;
34920;SDS011;21128;50.016;20.002;2024-01-15T05:17:28;6.70;;;2.20;;
34920;SDS011;21128;50.016;20.002;2024-01-15T05:19:54;5.40;;;2.60;;
34920;SDS011;21128;50.016;20.002;2024-01-15T05:22:21;8.00;;;3.20;;
34920;SDS011;21128;50.016;20.002;2024-01-15T05:24:54;5.60;;;2.60;;
34920;SDS011;21128;50.016;20.002;2024-01-15T05:27:20;5.10;;;2.90;;
34920;SDS011;21128;50.016;20.002;2024-01-15T05:29:47;3.70;;;2.30;;
34920;SDS011;21128;50.016;20.002;2024-01-15T05:32:14;3.80;;;2.40;;
34920;SDS011;21128;50.016;20.002;2024-01-15T05:34:40;5.00;;;2.80;;
34920;SDS011;21128;50.016;20.002;2024-01-15T05:37:07;6.30;;;2.90;;
34920;SDS011;21128;50.016;20.002;2024-01-15T05:39:34;5.40;;;3.00;;
34920;SDS011;21128;50.016;20.002;2024-01-15T05:42:00;5.10;;;2.50;;
34920;SDS011;21128;50.016;20.002;2024-01-15T05:44:27;6.40;;;3.00;;
34920;SDS011;21128;50.016;20.002;2024-01-15T05:46:54;5.20;;;2.70;;
34920;SDS011;21128;50.016;20.002;2024-01-15T05:49:21;7.10;;;2.90;;
34920;SDS011;21128;50.016;20.002;2024-01-15T05:51:47;3.90;;;2.40;;
34920;SDS011;21128;50.016;20.002;2024-01-15T05:54:14;5.10;;;2.80;;
34920;SDS011;21128;50.016;20.002;2024-01-15T05:56:41;5.60;;;2.90;;
34920;SDS011;21128;50.016;20.002;2024-01-15T05:59:08;5.20;;;2.80;;
34920;SDS011;21128;50.016;20.002;2024-01-15T06:01:34;8.90;;;3.00;;
34920;SDS011;21128;50.016;20.002;2024-01-15T06:04:01;4.60;;;3.20;;
34920;SDS011;21128;50.016;20.002;2024-01-15T06:06:28;5.10;;;2.70;;
34920;SDS011;21128;50.016;20.002;2024-01-15T06:08:55;6.00;;;2.50;;
34920;SDS011;21128;50.016;20.002;2024-01-15T06:11:31;6.70;;;2.80;;
34920;SDS011;21128;50.016;20.002;2024-01-15T06:13:59;4.30;;;2.30;;
34920;SDS011;21128;50.016;20.002;2024-01-15T06:16:29;5.80;;;3.00;;
34920;SDS011;21128;50.016;20.002;2024-01-15T06:18:55;6.20;;;3.10;;
34920;SDS011;21128;50.016;20.002;2024-01-15T06:21:22;7.00;;;3.20;;
34920;SDS011;21128;50.016;20.002;2024-01-15T06:23:49;5.10;;;3.30;;
34920;SDS011;21128;50.016;20.002;2024-01-15T06:26:15;5.80;;;3.50;;
34920;SDS011;21128;50.016;20.002;2024-01-15T06:28:42;5.40;;;3.70;;
34920;SDS011;21128;50.016;20.002;2024-01-15T06:31:09;8.30;;;3.30;;
34920;SDS011;21128;50.016;20.002;2024-01-15T06:33:36;7.30;;;3.30;;
34920;SDS011;21128;50.016;20.002;2024-01-15T06:36:02;6.30;;;3.40;;
34920;SDS011;21128;50.016;20.002;2024-01-15T06:38:29;8.80;;;3.80;;
34920;SDS011;21128;50.016;20.002;2024-01-15T06:40:56;8.00;;;4.20;;
34920;SDS011;21128;50.016;20.002;2024-01-15T06:43:23;8.20;;;4.00;;
34920;SDS011;21128;50.016;20.002;2024-01-15T06:45:50;9.30;;;4.70;;
34920;SDS011;21128;50.016;20.002;2024-01-15T06:48:16;6.70;;;3.40;;
34920;SDS011;21128;50.016;20.002;2024-01-15T06:50:43;10.60;;;5.10;;
34920;SDS011;21128;50.016;20.002;2024-01-15T06:53:10;7.80;;;4.50;;
34920;SDS011;21128;50.016;20.002;2024-01-15T06:55:37;9.70;;;4.10;;
34920;SDS011;21128;50.016;20.002;2024-01-15T06:58:05;8.30;;;3.60;;
34920;SDS011;21128;50.016;20.002;2024-01-15T07:00:32;7.00;;;4.00;;
34920;SDS011;21128;50.016;20.002;2024-01-15T07:02:59;8.30;;;4.70;;
34920;SDS011;21128;50.016;20.002;2024-01-15T07:05:26;8.20;;;4.50;;
34920;SDS011;21128;50.016;20.002;2024-01-15T07:07:53;8.70;;;3.80;;
34920;SDS011;21128;50.016;20.002;2024-01-15T07:10:20;10.70;;;5.20;;
34920;SDS011;21128;50.016;20.002;2024-01-15T07:12:46;10.20;;;4.50;;
34920;SDS011;21128;50.016;20.002;2024-01-15T07:15:14;8.40;;;4.70;;
34920;SDS011;21128;50.016;20.002;2024-01-15T07:17:41;9.50;;;4.80;;
34920;SDS011;21128;50.016;20.002;2024-01-15T07:20:09;9.20;;;5.00;;
34920;SDS011;21128;50.016;20.002;2024-01-15T07:22:36;6.80;;;4.20;;
34920;SDS011;21128;50.016;20.002;2024-01-15T07:25:03;9.60;;;4.90;;
34920;SDS011;21128;50.016;20.002;2024-01-15T07:27:31;8.90;;;4.80;;
34920;SDS011;21128;50.016;20.002;2024-01-15T07:30:01;8.60;;;5.10;;
34920;SDS011;21128;50.016;20.002;2024-01-15T07:32:30;7.60;;;4.90;;
34920;SDS011;21128;50.016;20.002;2024-01-15T07:34:58;8.30;;;4.70;;
34920;SDS011;21128;50.016;20.002;2024-01-15T07:37:26;10.40;;;5.70;;
34920;SDS011;21128;50.016;20.002;2024-01-15T07:39:52;9.10;;;4.80;;
34920;SDS011;21128;50.016;20.002;2024-01-15T07:42:19;8.50;;;4.70;;
34920;SDS011;21128;50.016;20.002;2024-01-15T07:44:46;11.80;;;6.30;;
34920;SDS011;21128;50.016;20.002;2024-01-15T07:47:13;9.10;;;4.80;;
34920;SDS011;21128;50.016;20.002;2024-01-15T07:49:40;10.00;;;5.80;;
34920;SDS011;21128;50.016;20.002;2024-01-15T07:52:06;11.10;;;5.90;;
34920;SDS011;21128;50.016;20.002;2024-01-15T07:54:33;9.00;;;5.80;;
34920;SDS011;21128;50.016;20.002;2024-01-15T07:57:00;11.40;;;6.10;;
34920;SDS011;21128;50.016;20.002;2024-01-15T07:59:31;9.30;;;5.70;;
34920;SDS011;21128;50.016;20.002;2024-01-15T08:01:58;10.60;;;6.20;;
34920;SDS011;21128;50.016;20.002;2024-01-15T08:04:25;9.50;;;5.90;;
34920;SDS011;21128;50.016;20.002;2024-01-15T08:06:52;12.20;;;6.50;;
34920;SDS011;21128;50.016;20.002;2024-01-15T08:09:19;9.70;;;5.90;;
34920;SDS011;21128;50.016;20.002;2024-01-15T08:11:46;9.60;;;5.70;;
34920;SDS011;21128;50.016;20.002;2024-01-15T08:14:13;10.70;;;5.90;;
34920;SDS011;21128;50.016;20.002;2024-01-15T08:16:39;12.00;;;6.10;;
34920;SDS011;21128;50.016;20.002;2024-01-15T08:19:07;13.80;;;6.30;;
34920;SDS011;21128;50.016;20.002;2024-01-15T08:21:33;10.80;;;6.20;;
34920;SDS011;21128;50.016;20.002;2024-01-15T08:24:01;10.20;;;5.70;;
34920;SDS011;21128;50.016;20.002;2024-01-15T08:26:29;11.50;;;6.20;;
34920;SDS011;21128;50.016;20.002;2024-01-15T08:28:56;15.70;;;6.40;;
34920;SDS011;21128;50.016;20.002;2024-01-15T08:31:23;12.10;;;5.50;;
34920;SDS011;21128;50.016;20.002;2024-01-15T08:33:50;11.00;;;6.20;;
34920;SDS011;21128;50.016;20.002;2024-01-15T08:36:17;12.10;;;6.40;;
34920;SDS011;21128;50.016;20.002;2024-01-15T08:38:44;14.30;;;5.40;;
34920;SDS011;21128;50.016;20.002;2024-01-15T08:41:11;10.70;;;6.10;;
34920;SDS011;21128;50.016;20.002;2024-01-15T08:43:38;9.10;;;5.40;;
34920;SDS011;21128;50.016;20.002;2024-01-15T08:46:05;13.30;;;6.20;;
34920;SDS011;21128;50.016;20.002;2024-01-15T08:48:32;12.80;;;6.80;;
34920;SDS011;21128;50.016;20.002;2024-01-15T08:50:58;8.90;;;5.30;;
34920;SDS011;21128;50.016;20.002;2024-01-15T08:53:25;10.50;;;5.10;;
34920;SDS011;21128;50.016;20.002;2024-01-15T08:55:55;9.60;;;6.10;;
34920;SDS011;21128;50.016;20.002;2024-01-15T08:58:23;10.90;;;6.30;;
34920;SDS011;21128;50.016;20.002;2024-01-15T09:00:51;10.30;;;6.60;;
34920;SDS011;21128;50.016;20.002;2024-01-15T09:03:18;12.70;;;6.40;;
34920;SDS011;21128;50.016;20.002;2024-01-15T09:05:45;15.00;;;7.20;;
34920;SDS011;21128;50.016;20.002;2024-01-15T09:08:12;11.50;;;6.70;;
34920;SDS011;21128;50.016;20.002;2024-01-15T09:10:38;13.30;;;7.70;;
34920;SDS011;21128;50.016;20.002;2024-01-15T09:13:05;12.40;;;6.80;;
34920;SDS011;21128;50.016;20.002;2024-01-15T09:15:32;11.80;;;6.50;;
34920;SDS011;21128;50.016;20.002;2024-01-15T09:17:59;13.50;;;7.40;;
34920;SDS011;21128;50.016;20.002;2024-01-15T09:20:26;11.20;;;6.80;;
34920;SDS011;21128;50.016;20.002;2024-01-15T09:22:55;11.90;;;7.20;;
34920;SDS011;21128;50.016;20.002;2024-01-15T09:25:22;12.20;;;8.00;;
34920;SDS011;21128;50.016;20.002;2024-01-15T09:27:49;13.70;;;7.10;;
34920;SDS011;21128;50.016;20.002;2024-01-15T09:30:16;14.60;;;6.90;;
34920;SDS011;21128;50.016;20.002;2024-01-15T09:32:42;14.90;;;6.60;;
34920;SDS011;21128;50.016;20.002;2024-01-15T09:35:09;14.70;;;7.10;;
34920;SDS011;21128;50.016;20.002;2024-01-15T09:37:39;13.90;;;6.50;;
34920;SDS011;21128;50.016;20.002;2024-01-15T09:40:06;11.50;;;6.30;;
34920;SDS011;21128;50.016;20.002;2024-01-15T09:42:37;12.40;;;6.80;;
34920;SDS011;21128;50.016;20.002;2024-01-15T09:45:05;11.80;;;6.80;;
34920;SDS011;21128;50.016;20.002;2024-01-15T09:47:32;10.30;;;6.00;;
34920;SDS011;21128;50.016;20.002;2024-01-15T09:49:59;11.80;;;6.90;;
34920;SDS011;21128;50.016;20.002;2024-01-15T09:52:26;10.70;;;5.90;;
34920;SDS011;21128;50.016;20.002;2024-01-15T09:54:53;11.00;;;5.40;;
34920;SDS011;21128;50.016;20.002;2024-01-15T09:57:20;13.10;;;7.20;;
34920;SDS011;21128;50.016;20.002;2024-01-15T09:59:47;12.00;;;6.40;;
34920;SDS011;21128;50.016;20.002;2024-01-15T10:02:15;11.30;;;6.60;;
34920;SDS011;21128;50.016;20.002;2024-01-15T10:04:45;12.60;;;7.00;;
34920;SDS011;21128;50.016;20.002;2024-01-15T10:07:15;13.80;;;7.30;;
34920;SDS011;21128;50.016;20.002;2024-01-15T10:09:46;12.50;;;7.30;;
34920;SDS011;21128;50.016;20.002;2024-01-15T10:12:13;14.70;;;7.40;;
34920;SDS011;21128;50.016;20.002;2024-01-15T10:14:40;16.30;;;9.10;;
34920;SDS011;21128;50.016;20.002;2024-01-15T10:17:12;13.00;;;7.20;;
34920;SDS011;21128;50.016;20.002;2024-01-15T10:19:42;13.20;;;7.00;;
34920;SDS011;21128;50.016;20.002;2024-01-15T10:22:09;13.30;;;7.70;;
34920;SDS011;21128;50.016;20.002;2024-01-15T10:24:36;13.60;;;7.20;;
34920;SDS011;21128;50.016;20.002;2024-01-15T10:27:04;15.30;;;7.80;;
34920;SDS011;21128;50.016;20.002;2024-01-15T10:29:33;13.10;;;7.80;;
34920;SDS011;21128;50.016;20.002;2024-01-15T10:32:00;10.90;;;7.00;;
34920;SDS011;21128;50.016;20.002;2024-01-15T10:34:27;18.00;;;7.70;;
34920;SDS011;21128;50.016;20.002;2024-01-15T10:36:54;14.30;;;8.10;;
34920;SDS011;21128;50.016;20.002;2024-01-15T10:39:24;12.70;;;7.30;;
34920;SDS011;21128;50.016;20.002;2024-01-15T10:41:51;13.00;;;7.50;;
34920;SDS011;21128;50.016;20.002;2024-01-15T10:44:18;13.40;;;7.70;;
34920;SDS011;21128;50.016;20.002;2024-01-15T10:46:46;14.40;;;8.50;;
34920;SDS011;21128;50.016;20.002;2024-01-15T10:49:13;13.80;;;7.10;;
34920;SDS011;21128;50.016;20.002;2024-01-15T10:51:40;13.40;;;6.40;;
34920;SDS011;21128;50.016;20.002;2024-01-15T10:54:09;12.80;;;6.20;;
34920;SDS011;21128;50.016;20.002;2024-01-15T10:56:37;13.90;;;7.40;;
34920;SDS011;21128;50.016;20.002;2024-01-15T10:59:06;12.90;;;6.90;;
34920;SDS011;21128;50.016;20.002;2024-01-15T11:01:36;11.50;;;6.00;;
34920;SDS011;21128;50.016;20.002;2024-01-15T11:04:03;10.80;;;6.40;;
34920;SDS011;21128;50.016;20.002;2024-01-15T11:06:40;13.30;;;7.10;;
34920;SDS011;21128;50.016;20.002;2024-01-15T11:09:08;15.50;;;7.30;;
34920;SDS011;21128;50.016;20.002;2024-01-15T11:11:36;15.10;;;7.90;;
34920;SDS011;21128;50.016;20.002;2024-01-15T11:14:06;13.70;;;6.90;;
34920;SDS011;21128;50.016;20.002;2024-01-15T11:17:16;12.70;;;7.20;;
34920;SDS011;21128;50.016;20.002;2024-01-15T11:24:56;13.20;;;6.20;;
34920;SDS011;21128;50.016;20.002;2024-01-15T11:27:42;11.50;;;6.30;;
34920;SDS011;21128;50.016;20.002;2024-01-15T11:30:13;14.00;;;6.20;;
34920;SDS011;21128;50.016;20.002;2024-01-15T11:32:41;12.30;;;7.20;;
34920;SDS011;21128;50.016;20.002;2024-01-15T11:35:09;11.90;;;6.50;;
34920;SDS011;21128;50.016;20.002;2024-01-15T11:40:21;17.10;;;7.90;;
34920;SDS011;21128;50.016;20.002;2024-01-15T11:42:49;17.00;;;7.10;;
34920;SDS011;21128;50.016;20.002;2024-01-15T11:45:16;14.00;;;6.90;;
34920;SDS011;21128;50.016;20.002;2024-01-15T11:50:35;28.20;;;6.20;;
34920;SDS011;21128;50.016;20.002;2024-01-15T11:55:52;12.80;;;7.90;;
34920;SDS011;21128;50.016;20.002;2024-01-15T11:58:24;11.90;;;7.00;;
34920;SDS011;21128;50.016;20.002;2024-01-15T12:00:51;14.30;;;8.20;;
34920;SDS011;21128;50.016;20.002;2024-01-15T12:03:22;18.70;;;9.00;;
34920;SDS011;21128;50.016;20.002;2024-01-15T12:05:52;14.50;;;7.10;;
34920;SDS011;21128;50.016;20.002;2024-01-15T12:08:22;14.00;;;7.60;;
34920;SDS011;21128;50.016;20.002;2024-01-15T12:10:53;13.10;;;7.80;;
34920;SDS011;21128;50.016;20.002;2024-01-15T12:13:20;17.60;;;8.10;;
34920;SDS011;21128;50.016;20.002;2024-01-15T12:15:47;14.90;;;7.50;;
34920;SDS011;21128;50.016;20.002;2024-01-15T12:18:15;14.20;;;7.00;;
34920;SDS011;21128;50.016;20.002;2024-01-15T12:20:45;14.20;;;7.80;;
34920;SDS011;21128;50.016;20.002;2024-01-15T12:23:16;11.50;;;6.70;;
34920;SDS011;21128;50.016;20.002;2024-01-15T12:25:43;13.60;;;8.00;;
34920;SDS011;21128;50.016;20.002;2024-01-15T12:28:10;15.40;;;7.90;;
34920;SDS011;21128;50.016;20.002;2024-01-15T12:30:37;17.90;;;8.60;;
34920;SDS011;21128;50.016;20.002;2024-01-15T12:33:04;16.60;;;7.60;;
34920;SDS011;21128;50.016;20.002;2024-01-15T12:35:35;13.60;;;7.30;;
34920;SDS011;21128;50.016;20.002;2024-01-15T12:38:02;11.00;;;5.90;;
34920;SDS011;21128;50.016;20.002;2024-01-15T12:40:30;13.80;;;6.20;;
34920;SDS011;21128;50.016;20.002;2024-01-15T12:42:59;12.40;;;7.60;;
34920;SDS011;21128;50.016;20.002;2024-01-15T12:45:27;11.50;;;6.60;;
34920;SDS011;21128;50.016;20.002;2024-01-15T12:47:54;13.30;;;7.00;;
34920;SDS011;21128;50.016;20.002;2024-01-15T12:50:25;15.60;;;7.80;;
34920;SDS011;21128;50.016;20.002;2024-01-15T12:52:53;13.70;;;6.50;;
34920;SDS011;21128;50.016;20.002;2024-01-15T12:55:19;11.90;;;6.80;;
34920;SDS011;21128;50.016;20.002;2024-01-15T12:57:46;13.10;;;7.50;;
34920;SDS011;21128;50.016;20.002;2024-01-15T13:00:13;17.00;;;7.60;;
34920;SDS011;21128;50.016;20.002;2024-01-15T13:02:41;13.80;;;8.00;;
34920;SDS011;21128;50.016;20.002;2024-01-15T13:05:09;11.10;;;6.20;;
34920;SDS011;21128;50.016;20.002;2024-01-15T13:07:39;13.00;;;7.00;;
34920;SDS011;21128;50.016;20.002;2024-01-15T13:10:06;14.90;;;7.70;;
34920;SDS011;21128;50.016;20.002;2024-01-15T13:12:35;13.40;;;6.90;;
34920;SDS011;21128;50.016;20.002;2024-01-15T13:15:03;11.00;;;6.40;;
34920;SDS011;21128;50.016;20.002;2024-01-15T13:17:30;10.40;;;6.50;;
34920;SDS011;21128;50.016;20.002;2024-01-15T13:19:57;10.80;;;5.90;;
34920;SDS011;21128;50.016;20.002;2024-01-15T13:22:24;13.70;;;6.40;;
34920;SDS011;21128;50.016;20.002;2024-01-15T13:24:56;11.90;;;6.90;;
34920;SDS011;21128;50.016;20.002;2024-01-15T13:27:23;13.60;;;6.50;;
34920;SDS011;21128;50.016;20.002;2024-01-15T13:29:53;17.60;;;7.10;;
34920;SDS011;21128;50.016;20.002;2024-01-15T13:32:27;13.50;;;6.50;;
34920;SDS011;21128;50.016;20.002;2024-01-15T13:34:57;12.40;;;7.00;;
34920;SDS011;21128;50.016;20.002;2024-01-15T13:37:26;11.10;;;6.00;;
34920;SDS011;21128;50.016;20.002;2024-01-15T13:39:53;15.10;;;6.10;;
34920;SDS011;21128;50.016;20.002;2024-01-15T13:42:20;12.60;;;7.10;;
34920;SDS011;21128;50.016;20.002;2024-01-15T13:44:48;11.00;;;6.40;;
34920;SDS011;21128;50.016;20.002;2024-01-15T13:47:15;11.00;;;5.10;;
34920;SDS011;21128;50.016;20.002;2024-01-15T13:49:42;12.40;;;6.60;;
34920;SDS011;21128;50.016;20.002;2024-01-15T13:52:08;13.60;;;6.10;;
34920;SDS011;21128;50.016;20.002;2024-01-15T13:54:35;15.00;;;6.50;;
34920;SDS011;21128;50.016;20.002;2024-01-15T13:57:02;17.50;;;6.10;;
34920;SDS011;21128;50.016;20.002;2024-01-15T13:59:31;13.90;;;6.90;;
34920;SDS011;21128;50.016;20.002;2024-01-15T14:01:58;11.00;;;6.50;;
34920;SDS011;21128;50.016;20.002;2024-01-15T14:04:25;12.60;;;6.40;;
34920;SDS011;21128;50.016;20.002;2024-01-15T14:06:52;14.50;;;6.70;;
34920;SDS011;21128;50.016;20.002;2024-01-15T14:09:18;13.20;;;6.20;;
34920;SDS011;21128;50.016;20.002;2024-01-15T14:11:45;15.20;;;6.90;;
34920;SDS011;21128;50.016;20.002;2024-01-15T14:14:12;12.30;;;5.80;;
34920;SDS011;21128;50.016;20.002;2024-01-15T14:16:38;12.10;;;6.00;;
34920;SDS011;21128;50.016;20.002;2024-01-15T14:19:05;11.70;;;6.50;;
34920;SDS011;21128;50.016;20.002;2024-01-15T14:21:36;12.30;;;6.50;;
34920;SDS011;21128;50.016;20.002;2024-01-15T14:24:02;15.70;;;7.20;;
34920;SDS011;21128;50.016;20.002;2024-01-15T14:26:30;14.50;;;6.60;;
34920;SDS011;21128;50.016;20.002;2024-01-15T14:28:57;10.80;;;6.40;;
34920;SDS011;21128;50.016;20.002;2024-01-15T14:31:24;9.60;;;6.00;;
34920;SDS011;21128;50.016;20.002;2024-01-15T14:33:53;11.90;;;6.10;;
34920;SDS011;21128;50.016;20.002;2024-01-15T14:36:21;10.20;;;6.50;;
34920;SDS011;21128;50.016;20.002;2024-01-15T14:38:47;13.10;;;6.10;;
34920;SDS011;21128;50.016;20.002;2024-01-15T14:41:15;12.40;;;6.60;;
34920;SDS011;21128;50.016;20.002;2024-01-15T14:43:43;11.00;;;6.50;;